Time;durP1;ratioP1;P1;durP2;ratioP2;P2;SDS_P1;SDS_P2;PMS_P1;PMS_P2;Temp;Humidity;BMP_temperature;BMP_pressure;BME280_temperature;BME280_humidity;BME280_pressure;Samples;Min_cycle;Max_cycle;Signal;HPM_P1;HPM_P2
2021/06/09 00:00:09;;;;;;;2.28;1.73;;;21.50;89.70;21.40;99910.00;;;;337362;28;91955;-88
2021/06/09 00:00:22;;;;;;;2.80;1.80;;;21.50;89.80;21.40;99919.00;;;;341584;28;94178;-88
2021/06/09 00:00:34;;;;;;;2.85;1.85;;;21.50;89.80;21.40;99909.00;;;;336096;28;90481;-87
2021/06/09 00:00:47;;;;;;;2.13;1.83;;;21.50;89.70;21.30;99910.00;;;;340127;28;94976;-87
2021/06/09 00:00:59;;;;;;;2.30;1.98;;;21.50;89.70;21.20;99914.00;;;;336013;28;91984;-88
2021/06/09 00:01:11;;;;;;;2.20;1.80;;;21.50;89.70;21.30;99909.00;;;;339900;28;92564;-87
2021/06/09 00:01:24;;;;;;;2.20;1.98;;;21.40;89.70;21.20;99910.00;;;;340171;28;92258;-88
2021/06/09 00:01:36;;;;;;;2.20;2.00;;;21.40;89.80;21.30;99912.00;;;;341240;28;96936;-87
2021/06/09 00:01:48;;;;;;;2.30;1.95;;;21.40;89.70;21.30;99911.00;;;;342698;28;91941;-88
2021/06/09 00:02:02;;;;;;;2.35;1.75;;;21.40;89.70;21.30;99911.00;;;;340106;28;96867;-88
2021/06/09 00:02:14;;;;;;;2.35;1.65;;;21.40;89.70;21.30;99908.00;;;;342451;28;92094;-88
2021/06/09 00:02:26;;;;;;;2.97;1.65;;;21.40;89.70;21.30;99911.00;;;;337566;28;94073;-87
2021/06/09 00:02:38;;;;;;;3.10;1.67;;;21.40;89.70;21.20;99914.00;;;;339927;28;91093;-87
2021/06/09 00:02:50;;;;;;;3.10;1.80;;;21.40;89.70;21.10;99911.00;;;;340180;28;95920;-87
2021/06/09 00:03:02;;;;;;;2.00;1.60;;;21.40;89.80;21.00;99913.00;;;;342706;28;91970;-87
2021/06/09 00:03:14;;;;;;;2.42;1.73;;;21.40;89.80;21.00;99902.00;;;;342833;28;93822;-88
2021/06/09 00:03:26;;;;;;;3.08;1.90;;;21.40;89.90;21.10;99907.00;;;;339934;28;91998;-88
2021/06/09 00:03:38;;;;;;;2.70;1.95;;;21.40;89.90;21.10;99913.00;;;;337423;28;97489;-87
2021/06/09 00:03:50;;;;;;;3.03;2.00;;;21.30;90.00;21.20;99911.00;;;;338361;28;92073;-87
2021/06/09 00:04:02;;;;;;;2.78;2.03;;;21.30;90.00;21.20;99911.00;;;;338796;28;96654;-87
2021/06/09 00:04:14;;;;;;;2.50;2.03;;;21.30;90.00;21.30;99904.00;;;;341950;28;92018;-87
2021/06/09 00:04:25;;;;;;;2.08;1.75;;;21.30;90.00;21.20;99910.00;;;;342536;28;96579;-88
2021/06/09 00:04:37;;;;;;;1.92;1.45;;;21.40;90.00;21.30;99911.00;;;;339952;28;91258;-88
2021/06/09 00:04:49;;;;;;;2.25;1.50;;;21.40;90.00;21.30;99904.00;;;;342340;28;92254;-87
2021/06/09 00:05:01;;;;;;;2.67;1.70;;;21.40;90.00;21.30;99900.00;;;;339988;28;91897;-87
2021/06/09 00:05:13;;;;;;;2.88;1.67;;;21.30;90.00;21.20;99907.00;;;;342725;28;94990;-88
2021/06/09 00:05:25;;;;;;;2.53;1.67;;;21.40;90.00;21.20;99910.00;;;;339983;28;91259;-88
2021/06/09 00:05:37;;;;;;;2.35;1.60;;;21.40;89.90;21.20;99912.00;;;;341362;28;97197;-88
2021/06/09 00:05:49;;;;;;;2.00;1.70;;;21.40;90.00;21.20;99909.00;;;;339902;28;92088;-88
2021/06/09 00:06:02;;;;;;;2.08;1.52;;;21.40;90.00;21.20;99911.00;;;;338902;28;94047;-88
2021/06/09 00:06:14;;;;;;;2.33;1.67;;;21.40;90.00;21.20;99904.00;;;;339906;28;92011;-88
2021/06/09 00:06:27;;;;;;;2.20;1.55;;;21.40;90.00;21.30;99905.00;;;;340102;28;96522;-88
2021/06/09 00:06:39;;;;;;;2.10;1.88;;;21.40;89.90;21.30;99903.00;;;;339952;28;90497;-88
2021/06/09 00:06:50;;;;;;;2.03;1.83;;;21.40;90.00;21.30;99908.00;;;;340088;28;96850;-88
2021/06/09 00:07:02;;;;;;;1.85;1.67;;;21.40;90.00;21.30;99904.00;;;;341307;28;91997;-88
2021/06/09 00:07:14;;;;;;;2.03;1.80;;;21.40;90.00;21.30;99905.00;;;;338652;28;97036;-87
2021/06/09 00:07:26;;;;;;;2.55;1.90;;;21.40;89.90;21.40;99910.00;;;;340060;28;92026;-87
2021/06/09 00:07:38;;;;;;;3.53;1.90;;;21.40;89.90;21.40;99903.00;;;;342873;28;93974;-87
2021/06/09 00:07:50;;;;;;;3.63;1.90;;;21.50;89.90;21.30;99907.00;;;;340033;28;92001;-87
2021/06/09 00:08:03;;;;;;;3.58;1.92;;;21.50;89.80;21.30;99900.00;;;;336209;28;94157;-87
2021/06/09 00:08:15;;;;;;;2.47;1.70;;;21.40;89.70;21.40;99904.00;;;;337286;28;92101;-87
2021/06/09 00:08:27;;;;;;;2.50;1.80;;;21.40;90.10;21.40;99908.00;;;;339784;28;95870;-88
2021/06/09 00:08:39;;;;;;;2.45;1.85;;;21.40;89.80;21.30;99908.00;;;;338590;28;91299;-88
2021/06/09 00:08:50;;;;;;;3.03;2.03;;;21.40;89.80;21.20;99907.00;;;;337422;28;95839;-87
2021/06/09 00:09:04;;;;;;;3.00;1.80;;;21.40;89.80;21.20;99908.00;;;;339969;28;91899;-87
2021/06/09 00:09:16;;;;;;;2.08;1.55;;;21.40;89.90;21.20;99911.00;;;;337445;28;94310;-87
2021/06/09 00:09:28;;;;;;;5.38;1.75;;;21.40;90.00;21.30;99907.00;;;;339979;28;91952;-88
2021/06/09 00:09:40;;;;;;;5.55;2.00;;;21.40;90.00;21.30;99904.00;;;;341425;28;96734;-88
2021/06/09 00:09:51;;;;;;;5.97;2.30;;;21.40;90.00;21.30;99909.00;;;;337360;28;91956;-88
2021/06/09 00:10:04;;;;;;;2.45;2.20;;;21.40;90.30;21.30;99906.00;;;;340110;28;96802;-87
2021/06/09 00:10:16;;;;;;;2.20;1.95;;;21.40;90.00;21.30;99912.00;;;;338017;28;92541;-87
2021/06/09 00:10:28;;;;;;;1.95;1.75;;;21.40;90.00;21.30;99913.00;;;;340250;28;97191;-87
2021/06/09 00:10:40;;;;;;;2.05;1.70;;;21.40;90.00;21.30;99901.00;;;;341238;28;91186;-87
2021/06/09 00:10:56;;;;;;;2.92;1.77;;;21.40;90.00;21.30;99901.00;;;;338743;28;95963;-88
2021/06/09 00:11:07;;;;;;;3.67;1.75;;;21.40;90.00;21.30;99905.00;;;;338471;28;92379;-87
2021/06/09 00:11:21;;;;;;;3.03;1.92;;;21.40;90.00;21.40;99902.00;;;;338671;28;95643;-87
2021/06/09 00:11:33;;;;;;;2.40;2.20;;;21.40;90.00;21.20;99903.00;;;;336982;28;92086;-88
2021/06/09 00:11:45;;;;;;;2.58;2.33;;;21.40;90.00;21.30;99905.00;;;;340052;28;96931;-87
2021/06/09 00:11:57;;;;;;;2.90;2.10;;;21.40;90.00;21.20;99910.00;;;;340000;28;91890;-88
2021/06/09 00:12:09;;;;;;;3.03;2.25;;;21.40;90.00;21.20;99909.00;;;;340049;28;96972;-87
2021/06/09 00:12:21;;;;;;;2.38;2.08;;;21.40;90.00;21.30;99908.00;;;;341262;28;91240;-88
2021/06/09 00:12:33;;;;;;;2.17;1.70;;;21.40;90.00;21.20;99907.00;;;;341331;28;97522;-87
2021/06/09 00:12:45;;;;;;;2.50;1.80;;;21.40;90.00;21.20;99899.00;;;;340124;28;90966;-88
2021/06/09 00:12:57;;;;;;;2.42;1.90;;;21.40;90.10;21.20;99905.00;;;;338661;28;96458;-87
2021/06/09 00:13:09;;;;;;;2.58;1.98;;;21.40;90.10;21.20;99909.00;;;;339758;28;92087;-87
2021/06/09 00:13:23;;;;;;;2.50;1.85;;;21.30;90.00;21.30;99907.00;;;;338730;28;97498;-88
2021/06/09 00:13:35;;;;;;;2.30;1.65;;;21.40;90.00;21.30;99919.00;;;;342486;28;92145;-87
2021/06/09 00:13:47;;;;;;;2.40;1.60;;;21.40;90.10;21.20;99912.00;;;;337762;28;97116;-87
2021/06/09 00:13:59;;;;;;;2.92;1.60;;;21.30;90.30;21.20;99904.00;;;;337459;28;91059;-88
2021/06/09 00:14:13;;;;;;;2.58;1.60;;;21.30;90.00;21.30;99904.00;;;;338678;28;95870;-87
2021/06/09 00:14:25;;;;;;;2.45;1.85;;;21.40;90.10;21.30;99910.00;;;;338517;28;92054;-88
2021/06/09 00:14:37;;;;;;;2.45;1.88;;;21.30;90.00;21.40;99909.00;;;;341184;28;96616;-88
2021/06/09 00:14:49;;;;;;;2.55;1.98;;;21.40;90.10;21.40;99899.00;;;;339892;28;91274;-87
2021/06/09 00:15:01;;;;;;;2.50;2.10;;;21.30;90.10;21.40;99911.00;;;;341496;28;93540;-87
2021/06/09 00:15:14;;;;;;;2.22;2.00;;;21.40;90.10;21.30;99901.00;;;;342565;28;92005;-87
2021/06/09 00:15:27;;;;;;;2.33;2.03;;;21.40;90.00;21.40;99904.00;;;;341349;28;95876;-87
2021/06/09 00:15:39;;;;;;;2.47;2.15;;;21.40;90.10;21.30;99908.00;;;;338620;28;91956;-88
2021/06/09 00:15:51;;;;;;;2.25;1.88;;;21.40;90.10;21.30;99904.00;;;;340173;28;93829;-88
2021/06/09 00:16:10;;;;;;;2.40;2.00;;;21.40;90.10;21.40;99908.00;;;;338759;28;91880;-87
2021/06/09 00:16:23;;;;;;;2.70;1.98;;;21.40;90.10;21.30;99906.00;;;;340284;28;94500;-88
2021/06/09 00:16:35;;;;;;;2.55;1.85;;;21.40;90.00;21.30;99905.00;;;;339850;28;92078;-87
2021/06/09 00:16:47;;;;;;;2.33;1.65;;;21.40;90.00;21.30;99910.00;;;;336466;28;97498;-87
2021/06/09 00:16:59;;;;;;;2.28;1.73;;;21.40;90.00;21.30;99909.00;;;;340008;28;91586;-88
2021/06/09 00:17:11;;;;;;;2.42;1.85;;;21.40;90.40;21.30;99905.00;;;;337343;28;95698;-88
2021/06/09 00:17:23;;;;;;;2.58;2.00;;;21.40;90.10;21.40;99905.00;;;;338471;28;92090;-87
2021/06/09 00:17:36;;;;;;;2.63;2.03;;;21.40;90.00;21.40;99905.00;;;;341423;28;95737;-88
2021/06/09 00:17:47;;;;;;;2.58;2.00;;;21.40;90.00;21.40;99908.00;;;;339929;28;91912;-87
2021/06/09 00:18:00;;;;;;;2.60;1.85;;;21.40;90.00;21.40;99911.00;;;;341418;28;95858;-88
2021/06/09 00:18:12;;;;;;;2.35;1.75;;;21.40;90.00;21.50;99913.00;;;;340019;28;91868;-88
2021/06/09 00:18:24;;;;;;;2.40;1.73;;;21.40;90.00;21.30;99903.00;;;;337201;28;94257;-88
2021/06/09 00:18:35;;;;;;;2.28;1.85;;;21.40;90.00;21.30;99906.00;;;;338607;28;91967;-88
2021/06/09 00:18:47;;;;;;;3.00;2.00;;;21.40;90.00;21.40;99906.00;;;;337480;28;94288;-87
2021/06/09 00:18:59;;;;;;;2.78;1.77;;;21.40;90.00;21.30;99912.00;;;;340173;28;91125;-87
2021/06/09 00:19:12;;;;;;;1.80;1.50;;;21.40;90.00;21.30;99910.00;;;;339743;28;96589;-87
2021/06/09 00:19:26;;;;;;;1.92;1.63;;;21.40;90.00;21.30;99909.00;;;;336658;28;91243;-87
2021/06/09 00:19:38;;;;;;;2.72;1.77;;;21.40;90.00;21.30;99909.00;;;;340082;28;96139;-88
2021/06/09 00:19:49;;;;;;;3.15;1.88;;;21.40;89.90;21.30;99907.00;;;;339875;28;92056;-88
2021/06/09 00:20:03;;;;;;;3.03;1.90;;;21.40;89.90;21.30;99909.00;;;;338581;28;93773;-88
2021/06/09 00:20:19;;;;;;;2.42;2.15;;;21.40;90.00;21.20;99915.00;;;;337271;28;91144;-88
2021/06/09 00:20:31;;;;;;;2.85;2.00;;;21.40;90.00;21.30;99900.00;;;;337288;28;96777;-88
2021/06/09 00:20:43;;;;;;;2.78;1.88;;;21.40;90.00;21.30;99904.00;;;;339943;28;92242;-87
2021/06/09 00:20:55;;;;;;;2.80;1.95;;;21.40;90.10;21.20;99907.00;;;;337544;28;92935;-88
2021/06/09 00:21:07;;;;;;;2.42;1.88;;;21.40;90.10;21.30;99908.00;;;;338563;28;91272;-88
2021/06/09 00:21:19;;;;;;;2.60;2.08;;;21.40;90.10;21.20;99903.00;;;;338798;28;92491;-88
2021/06/09 00:21:31;;;;;;;2.45;2.08;;;21.40;90.10;21.30;99911.00;;;;337286;28;92124;-88
2021/06/09 00:21:47;;;;;;;2.50;2.17;;;21.40;90.10;21.20;99907.00;;;;338722;28;97580;-88
2021/06/09 00:21:59;;;;;;;2.47;2.15;;;21.40;90.10;21.20;99913.00;;;;339859;28;92032;-87
2021/06/09 00:22:11;;;;;;;2.60;2.00;;;21.40;90.00;21.30;99907.00;;;;341336;28;95883;-87
2021/06/09 00:22:23;;;;;;;2.60;1.80;;;21.40;90.00;21.30;99902.00;;;;338356;28;92424;-87
2021/06/09 00:22:35;;;;;;;2.10;1.65;;;21.40;90.00;21.20;99912.00;;;;342225;28;96734;-87
2021/06/09 00:22:47;;;;;;;2.47;1.80;;;21.40;90.00;21.30;99908.00;;;;340593;28;91995;-88
2021/06/09 00:22:59;;;;;;;2.40;1.90;;;21.40;90.00;21.30;99908.00;;;;338648;28;95641;-88
2021/06/09 00:23:17;;;;;;;2.30;1.98;;;21.40;90.00;21.30;99894.00;;;;339857;28;91660;-88
2021/06/09 00:23:30;;;;;;;2.30;1.88;;;21.40;90.00;21.30;99908.00;;;;337518;28;93342;-88
2021/06/09 00:23:42;;;;;;;2.40;1.83;;;21.40;90.00;21.30;99909.00;;;;337318;28;92276;-87
2021/06/09 00:23:54;;;;;;;2.05;1.73;;;21.40;90.00;21.20;99906.00;;;;338700;28;97000;-88
2021/06/09 00:24:07;;;;;;;2.30;1.83;;;21.40;90.00;21.20;99907.00;;;;338649;28;92297;-88
2021/06/09 00:24:20;;;;;;;2.50;2.08;;;21.40;90.10;21.30;99911.00;;;;336274;28;92755;-88
2021/06/09 00:24:32;;;;;;;2.20;1.98;;;21.40;90.00;21.20;99905.00;;;;338596;28;92056;-88
2021/06/09 00:24:45;;;;;;;2.30;1.80;;;21.40;90.00;21.30;99908.00;;;;338769;28;96491;-87
2021/06/09 00:24:57;;;;;;;2.10;1.60;;;21.40;90.30;21.30;99912.00;;;;338705;28;91950;-87
2021/06/09 00:25:15;;;;;;;2.72;1.73;;;21.40;90.10;21.20;99900.00;;;;340048;28;94061;-88
2021/06/09 00:25:27;;;;;;;3.08;2.10;;;21.40;90.10;21.30;99907.00;;;;339317;28;91702;-88
2021/06/09 00:25:39;;;;;;;3.05;2.20;;;21.40;90.10;21.20;99909.00;;;;341472;28;96044;-87
2021/06/09 00:25:52;;;;;;;2.88;1.92;;;21.40;90.10;21.00;99904.00;;;;339862;28;91981;-87
2021/06/09 00:26:05;;;;;;;2.20;1.67;;;21.40;90.10;21.10;99906.00;;;;341046;28;97312;-87
2021/06/09 00:26:19;;;;;;;2.50;1.90;;;21.40;90.10;21.20;99911.00;;;;338937;28;91946;-87
2021/06/09 00:26:30;;;;;;;2.22;1.88;;;21.40;90.10;21.20;99919.00;;;;338608;28;96775;-88
2021/06/09 00:26:43;;;;;;;1.85;1.65;;;21.40;90.20;21.20;99906.00;;;;338581;28;92077;-87
2021/06/09 00:26:54;;;;;;;1.83;1.52;;;21.40;90.20;21.20;99903.00;;;;340207;28;94151;-88
2021/06/09 00:27:06;;;;;;;2.55;1.52;;;21.30;90.20;21.20;99912.00;;;;341374;28;91886;-88
2021/06/09 00:27:18;;;;;;;2.78;1.70;;;21.30;90.20;21.20;99914.00;;;;338780;28;93859;-87
2021/06/09 00:27:30;;;;;;;1.98;1.73;;;21.30;90.10;21.20;99916.00;;;;339915;28;91362;-87
2021/06/09 00:27:51;;;;;;;2.03;1.77;;;21.30;90.10;21.30;99914.00;;;;338905;28;93226;-88
2021/06/09 00:28:05;;;;;;;1.92;1.73;;;21.30;90.20;21.30;99906.00;;;;342591;28;91990;-87
2021/06/09 00:28:17;;;;;;;2.55;1.50;;;21.30;90.20;21.30;99913.00;;;;341503;28;96588;-87
2021/06/09 00:28:34;;;;;;;2.78;1.67;;;21.30;90.20;21.30;99913.00;;;;340776;28;92355;-88
2021/06/09 00:28:46;;;;;;;2.10;1.73;;;21.40;90.20;21.30;99909.00;;;;340966;28;96746;-88
2021/06/09 00:28:58;;;;;;;2.30;1.67;;;21.40;90.20;21.40;99900.00;;;;339922;28;91423;-88
2021/06/09 00:29:10;;;;;;;2.47;1.58;;;21.40;90.20;21.20;99905.00;;;;339938;28;96129;-88
2021/06/09 00:29:22;;;;;;;2.70;1.85;;;21.40;90.20;21.20;99906.00;;;;338824;28;91156;-87
2021/06/09 00:29:34;;;;;;;2.75;1.90;;;21.40;90.20;21.10;99910.00;;;;340034;28;95528;-87
2021/06/09 00:29:46;;;;;;;2.60;1.83;;;21.40;90.20;21.20;99910.00;;;;336073;28;90270;-88
2021/06/09 00:29:57;;;;;;;2.30;1.77;;;21.40;90.20;21.20;99913.00;;;;340069;28;96074;-88
2021/06/09 00:30:10;;;;;;;2.15;1.83;;;21.40;90.20;21.20;99914.00;;;;337348;28;91933;-88
2021/06/09 00:30:27;;;;;;;2.00;1.75;;;21.40;90.20;21.10;99903.00;;;;341528;28;92944;-88
2021/06/09 00:30:39;;;;;;;2.90;1.80;;;21.30;90.10;21.10;99910.00;;;;338516;28;92023;-88
2021/06/09 00:30:51;;;;;;;3.22;1.88;;;21.30;90.20;21.20;99909.00;;;;338469;28;95590;-87
2021/06/09 00:31:05;;;;;;;2.60;1.67;;;21.30;90.20;21.10;99906.00;;;;338641;28;92010;-87
2021/06/09 00:31:16;;;;;;;2.75;1.80;;;21.30;90.20;21.20;99908.00;;;;338597;28;94972;-88
2021/06/09 00:31:28;;;;;;;2.50;1.90;;;21.30;90.20;21.20;99900.00;;;;339441;28;91931;-87
2021/06/09 00:31:40;;;;;;;2.35;2.05;;;21.30;90.20;21.20;99906.00;;;;338708;28;96178;-87
2021/06/09 00:31:52;;;;;;;2.10;1.90;;;21.30;90.20;21.20;99905.00;;;;338648;28;91225;-87
2021/06/09 00:32:04;;;;;;;3.08;2.03;;;21.30;90.20;21.10;99903.00;;;;341460;28;96128;-87
2021/06/09 00:32:16;;;;;;;3.17;2.03;;;21.30;90.20;21.00;99905.00;;;;339958;28;92042;-88
2021/06/09 00:32:28;;;;;;;3.10;1.98;;;21.30;90.20;21.00;99913.00;;;;339911;28;96922;-87
2021/06/09 00:32:40;;;;;;;2.45;1.75;;;21.30;90.20;20.90;99907.00;;;;338564;28;92129;-87
2021/06/09 00:32:52;;;;;;;2.72;1.80;;;21.20;90.20;20.90;99904.00;;;;339846;28;97206;-88
2021/06/09 00:33:04;;;;;;;2.38;1.80;;;21.20;90.30;21.00;99909.00;;;;337282;28;91127;-88
2021/06/09 00:33:16;;;;;;;3.90;2.05;;;21.20;90.30;21.10;99905.00;;;;340109;28;94617;-88
2021/06/09 00:33:28;;;;;;;5.00;2.20;;;21.20;90.30;21.10;99901.00;;;;337187;28;92282;-88
2021/06/09 00:33:40;;;;;;;3.95;2.10;;;21.20;90.60;21.10;99902.00;;;;340055;28;97772;-87
2021/06/09 00:33:52;;;;;;;3.90;2.30;;;21.20;90.40;21.00;99904.00;;;;338542;28;90745;-88
2021/06/09 00:34:04;;;;;;;2.60;2.38;;;21.20;90.30;21.00;99905.00;;;;338872;28;93175;-87
2021/06/09 00:34:15;;;;;;;2.40;1.98;;;21.20;90.40;21.00;99901.00;;;;341652;28;92186;-88
2021/06/09 00:34:27;;;;;;;2.17;1.75;;;21.20;90.40;21.10;99902.00;;;;338725;28;93845;-87
2021/06/09 00:34:39;;;;;;;2.28;1.92;;;21.20;90.40;21.10;99897.00;;;;339711;28;91235;-88
2021/06/09 00:34:51;;;;;;;2.17;1.95;;;21.20;90.70;21.00;99904.00;;;;338699;28;93005;-88
2021/06/09 00:35:04;;;;;;;2.10;1.80;;;21.20;90.40;21.00;99900.00;;;;341226;28;92041;-88
2021/06/09 00:35:16;;;;;;;2.30;1.90;;;21.20;90.50;21.00;99908.00;;;;338619;28;96401;-87
2021/06/09 00:35:28;;;;;;;2.63;1.88;;;21.20;90.40;21.00;99902.00;;;;338566;28;92018;-88
2021/06/09 00:35:40;;;;;;;2.90;2.13;;;21.20;90.40;21.10;99899.00;;;;337399;28;97315;-87
2021/06/09 00:35:55;;;;;;;3.55;2.13;;;21.20;90.50;21.10;99905.00;;;;338291;28;91380;-87
2021/06/09 00:36:07;;;;;;;3.20;2.17;;;21.20;90.40;21.10;99901.00;;;;337484;28;95724;-87
2021/06/09 00:36:19;;;;;;;2.92;2.15;;;21.20;90.50;21.10;99911.00;;;;338571;28;92048;-87
2021/06/09 00:36:31;;;;;;;2.20;2.00;;;21.20;90.40;21.10;99903.00;;;;337306;28;96230;-87
2021/06/09 00:36:43;;;;;;;2.00;1.80;;;21.20;90.40;21.10;99903.00;;;;339825;28;92179;-88
2021/06/09 00:36:55;;;;;;;2.15;1.95;;;21.20;90.50;21.10;99897.00;;;;341429;28;95747;-88
2021/06/09 00:37:06;;;;;;;2.45;2.20;;;21.20;90.40;21.10;99907.00;;;;338570;28;91983;-87
2021/06/09 00:37:18;;;;;;;3.28;1.95;;;21.20;90.40;21.20;99903.00;;;;339981;28;96620;-88
2021/06/09 00:37:30;;;;;;;2.92;1.58;;;21.20;90.40;21.00;99898.00;;;;340556;28;91062;-88
2021/06/09 00:37:42;;;;;;;1.98;1.58;;;21.20;90.40;20.90;99900.00;;;;337334;28;96763;-88
2021/06/09 00:37:54;;;;;;;2.03;1.75;;;21.20;90.40;21.00;99895.00;;;;337454;28;91204;-87
2021/06/09 00:38:06;;;;;;;2.13;1.85;;;21.20;90.40;21.00;99900.00;;;;337347;28;95335;-88
2021/06/09 00:38:18;;;;;;;2.17;1.80;;;21.20;90.40;20.90;99908.00;;;;339711;28;91925;-87
2021/06/09 00:38:30;;;;;;;2.72;1.90;;;21.20;90.50;21.00;99900.00;;;;340045;28;94217;-87
2021/06/09 00:38:42;;;;;;;3.03;1.88;;;21.10;90.50;21.00;99894.00;;;;335981;28;91978;-87
2021/06/09 00:38:54;;;;;;;2.83;1.90;;;21.10;90.50;21.00;99896.00;;;;340179;28;94207;-87
2021/06/09 00:39:06;;;;;;;2.92;1.83;;;21.10;90.50;21.00;99899.00;;;;338534;28;91114;-88
2021/06/09 00:39:18;;;;;;;3.30;1.98;;;21.10;90.50;21.00;99896.00;;;;338683;28;97256;-88
2021/06/09 00:39:30;;;;;;;4.97;2.10;;;21.10;90.50;21.00;99894.00;;;;338680;28;91961;-87
2021/06/09 00:39:43;;;;;;;4.57;2.28;;;21.10;90.50;21.00;99893.00;;;;338773;28;95572;-87
2021/06/09 00:39:54;;;;;;;4.10;1.90;;;21.10;90.50;21.10;99886.00;;;;335918;28;91273;-88
2021/06/09 00:40:08;;;;;;;1.90;1.67;;;21.10;90.50;21.00;99896.00;;;;338891;28;93024;-87
2021/06/09 00:40:20;;;;;;;2.05;1.80;;;21.10;90.50;21.00;99897.00;;;;338698;28;91332;-88
2021/06/09 00:40:32;;;;;;;2.25;1.95;;;21.10;90.50;21.00;99892.00;;;;339044;28;93967;-87
2021/06/09 00:40:44;;;;;;;2.70;2.00;;;21.20;90.50;21.00;99890.00;;;;337219;28;91997;-87
2021/06/09 00:40:57;;;;;;;3.97;1.85;;;21.20;90.50;21.00;99892.00;;;;338717;28;96405;-87
2021/06/09 00:41:09;;;;;;;4.30;1.98;;;21.20;90.50;21.00;99892.00;;;;337316;28;92237;-88
2021/06/09 00:41:21;;;;;;;4.38;2.10;;;21.20;90.80;21.00;99889.00;;;;338681;28;92986;-88
2021/06/09 00:41:33;;;;;;;2.65;2.00;;;21.20;90.50;21.00;99884.00;;;;342349;28;91237;-87
2021/06/09 00:41:45;;;;;;;2.60;2.10;;;21.20;90.60;21.00;99888.00;;;;337312;28;97139;-87
2021/06/09 00:41:57;;;;;;;2.00;1.80;;;21.20;90.50;21.10;99889.00;;;;339803;28;90527;-88
2021/06/09 00:42:09;;;;;;;2.03;1.83;;;21.20;90.70;21.00;99890.00;;;;341389;28;95993;-88
2021/06/09 00:42:21;;;;;;;2.05;1.85;;;21.20;90.50;21.00;99890.00;;;;342804;28;91852;-87
2021/06/09 00:42:33;;;;;;;2.42;2.22;;;21.20;90.50;20.90;99884.00;;;;340049;28;94726;-87
2021/06/09 00:43:09;;;;;;;2.50;2.10;;;21.20;90.50;20.80;99892.00;;;;339911;28;91962;-87
2021/06/09 00:43:23;;;;;;;2.40;2.17;;;21.10;90.50;20.90;99894.00;;;;340015;28;95845;-87
2021/06/09 00:43:35;;;;;;;2.63;2.30;;;21.10;90.50;21.00;99886.00;;;;342275;28;92075;-88
2021/06/09 00:43:46;;;;;;;3.05;2.08;;;21.10;90.50;20.90;99891.00;;;;341943;28;94572;-87
2021/06/09 00:43:58;;;;;;;2.80;1.90;;;21.10;90.50;20.90;99889.00;;;;341350;28;92154;-87
2021/06/09 00:44:11;;;;;;;2.38;1.80;;;21.10;90.50;20.90;99895.00;;;;338743;28;94295;-87
2021/06/09 00:44:23;;;;;;;2.20;2.00;;;21.10;90.50;21.00;99887.00;;;;339870;28;91352;-87
2021/06/09 00:44:34;;;;;;;2.20;1.95;;;21.10;90.50;21.00;99889.00;;;;340081;28;93241;-87
2021/06/09 00:44:48;;;;;;;2.15;1.95;;;21.10;90.50;21.00;99892.00;;;;335935;28;91950;-88
2021/06/09 00:45:00;;;;;;;2.58;1.90;;;21.10;90.50;21.10;99886.00;;;;341268;28;97288;-87
2021/06/09 00:45:13;;;;;;;2.97;2.08;;;21.10;90.50;21.00;99888.00;;;;336949;28;92239;-87
2021/06/09 00:45:25;;;;;;;2.85;2.20;;;21.10;90.50;21.00;99892.00;;;;338698;28;92710;-87
2021/06/09 00:45:43;;;;;;;3.05;2.40;;;21.10;90.50;21.00;99893.00;;;;338599;28;91855;-88
2021/06/09 00:45:57;;;;;;;2.38;2.00;;;21.10;90.60;21.00;99888.00;;;;338575;28;97864;-88
2021/06/09 00:46:11;;;;;;;2.30;1.80;;;21.10;90.50;20.80;99894.00;;;;337290;28;92001;-88
2021/06/09 00:46:30;;;;;;;2.47;2.08;;;21.10;90.50;21.00;99889.00;;;;340202;28;96873;-88
2021/06/09 00:46:43;;;;;;;2.40;2.20;;;21.10;90.80;21.00;99887.00;;;;337226;28;91384;-87
2021/06/09 00:46:55;;;;;;;2.55;2.20;;;21.10;90.50;21.00;99883.00;;;;340104;28;94684;-88
2021/06/09 00:47:07;;;;;;;3.17;2.10;;;21.10;90.50;20.90;99888.00;;;;338668;28;91046;-88
2021/06/09 00:47:22;;;;;;;3.50;1.90;;;21.10;90.50;20.80;99893.00;;;;338669;28;96530;-87
2021/06/09 00:47:34;;;;;;;3.97;2.13;;;21.10;90.80;20.70;99897.00;;;;338654;28;91923;-88
2021/06/09 00:47:46;;;;;;;3.55;2.05;;;21.10;90.60;20.80;99889.00;;;;339999;28;95951;-87
2021/06/09 00:47:58;;;;;;;2.40;1.80;;;21.10;90.70;20.70;99887.00;;;;339844;28;92071;-88
2021/06/09 00:48:11;;;;;;;3.65;1.52;;;21.00;90.60;20.70;99895.00;;;;338742;28;97257;-87
2021/06/09 00:48:26;;;;;;;4.47;1.75;;;21.00;90.60;20.80;99883.00;;;;341175;28;92030;-88
2021/06/09 00:48:40;;;;;;;2.95;1.85;;;21.00;90.70;20.90;99889.00;;;;339898;28;95510;-87
2021/06/09 00:48:52;;;;;;;2.10;1.60;;;21.00;90.70;20.90;99886.00;;;;341238;28;90617;-87
2021/06/09 00:49:04;;;;;;;2.33;1.52;;;21.00;90.70;20.90;99888.00;;;;338752;28;95746;-87
2021/06/09 00:49:16;;;;;;;3.40;1.85;;;21.00;90.70;20.80;99895.00;;;;340263;28;92649;-88
2021/06/09 00:49:28;;;;;;;3.13;1.90;;;21.00;90.70;20.80;99886.00;;;;342651;28;96459;-87
2021/06/09 00:49:40;;;;;;;2.33;1.70;;;21.00;90.70;20.90;99888.00;;;;340007;28;91901;-87
2021/06/09 00:49:52;;;;;;;2.20;1.98;;;21.00;90.70;20.80;99895.00;;;;338698;28;94102;-88
2021/06/09 00:50:05;;;;;;;2.50;2.30;;;21.00;90.70;20.80;99890.00;;;;338481;28;92038;-88
2021/06/09 00:50:16;;;;;;;2.38;1.98;;;21.00;90.70;20.70;99893.00;;;;338643;28;97512;-87
2021/06/09 00:50:29;;;;;;;2.17;1.55;;;21.00;90.80;20.80;99898.00;;;;338440;28;92099;-87
2021/06/09 00:50:41;;;;;;;2.17;1.52;;;21.00;90.70;20.80;99888.00;;;;338769;28;96304;-87
2021/06/09 00:50:54;;;;;;;2.10;1.52;;;21.00;90.70;20.80;99891.00;;;;341312;28;91789;-88
2021/06/09 00:51:13;;;;;;;3.20;1.70;;;21.00;90.70;20.80;99890.00;;;;338443;28;95318;-87
2021/06/09 00:51:25;;;;;;;3.90;1.80;;;21.00;90.70;20.90;99891.00;;;;338713;28;91789;-87
2021/06/09 00:51:37;;;;;;;2.63;1.73;;;21.00;90.80;20.80;99896.00;;;;340078;28;95991;-88
2021/06/09 00:51:49;;;;;;;2.42;1.88;;;21.00;90.80;20.80;99894.00;;;;339734;28;92083;-87
2021/06/09 00:52:00;;;;;;;2.45;1.88;;;21.00;90.80;20.90;99888.00;;;;338633;28;96915;-87
2021/06/09 00:52:12;;;;;;;3.03;1.90;;;21.00;90.80;20.80;99893.00;;;;337207;28;91905;-87
2021/06/09 00:52:26;;;;;;;2.72;1.67;;;21.00;90.80;20.90;99888.00;;;;341022;28;94227;-87
2021/06/09 00:52:37;;;;;;;2.40;1.48;;;21.00;90.80;20.90;99899.00;;;;340021;28;91156;-87
2021/06/09 00:52:49;;;;;;;2.65;1.50;;;21.00;90.80;20.90;99892.00;;;;338641;28;94334;-87
2021/06/09 00:53:34;;;;;;;2.40;1.90;;;21.00;90.80;20.90;99892.00;;;;338859;28;92847;-88
2021/06/09 00:53:59;;;;;;;2.30;1.92;;;21.00;90.80;20.80;99890.00;;;;339823;28;91913;-87
2021/06/09 00:54:11;;;;;;;2.47;1.85;;;21.00;90.80;20.80;99893.00;;;;337498;28;92904;-87
2021/06/09 00:54:23;;;;;;;2.40;1.92;;;21.00;90.70;20.90;99889.00;;;;341323;28;91898;-87
2021/06/09 00:54:36;;;;;;;2.38;1.95;;;21.00;90.70;20.90;99890.00;;;;335704;28;97648;-87
2021/06/09 00:54:47;;;;;;;2.58;1.90;;;21.00;90.70;20.90;99890.00;;;;337156;28;91114;-88
2021/06/09 00:54:59;;;;;;;2.33;1.88;;;21.00;90.70;21.00;99888.00;;;;338668;28;95664;-87
2021/06/09 00:55:12;;;;;;;2.40;1.80;;;21.00;90.70;21.00;99882.00;;;;335626;28;92034;-87
2021/06/09 00:55:24;;;;;;;2.50;1.65;;;21.00;90.70;21.00;99879.00;;;;338598;28;95537;-88
2021/06/09 00:55:35;;;;;;;2.63;2.00;;;21.00;90.70;20.80;99891.00;;;;341294;28;91192;-87
2021/06/09 00:55:47;;;;;;;2.72;2.28;;;21.00;90.70;20.70;99901.00;;;;342205;28;93891;-87
2021/06/09 00:56:03;;;;;;;3.25;2.28;;;21.00;90.70;20.80;99900.00;;;;337182;28;92293;-87
2021/06/09 00:56:15;;;;;;;3.13;2.20;;;21.00;90.70;20.90;99889.00;;;;342638;28;97303;-87
2021/06/09 00:56:27;;;;;;;2.17;1.98;;;21.00;90.70;20.90;99891.00;;;;339851;28;91853;-87
2021/06/09 00:56:39;;;;;;;2.00;1.70;;;21.00;90.70;20.90;99890.00;;;;341519;28;93098;-87
2021/06/09 00:56:51;;;;;;;2.10;1.90;;;21.00;90.80;21.00;99892.00;;;;337258;28;92303;-88
2021/06/09 00:57:03;;;;;;;2.78;1.92;;;21.00;90.70;20.90;99891.00;;;;338628;28;97169;-88
2021/06/09 00:57:15;;;;;;;2.90;1.83;;;21.00;90.70;20.90;99895.00;;;;339964;28;91885;-88